• Join FlightAware (Why Join?)
  • Login
  • US Flag 
10:58AM EDT


 

Airport Tracker/Info


-or-


 

Live Flight TrackerFlight Track Log ✈ UAL4401 ✈ 15-Apr-2013 ✈ KTUS - KIAH

Flight Track Log - Related Links

Times and Time Zones

All times are in EDT time to prevent confusion due to time zone crossing. See the UAL4401 flight status page for this flight to view local times or setup timezone preferences in your user account.

Time Position Orientation Groundspeed Altitude Reporting Facility
EDT Latitude Longitude Course Direction KTS MPH feet Rate Location/Type
04:04PM 32.0981 -110.9186 77° East 183 211 3,200  Level Albuquerque Center
04:05PM 32.0697 -110.8733 126° Southeast 211 243 4,800 2,220 Climbing Albuquerque Center
04:07PM 32.0386 -110.7403 105° East 248 285 9,200 2,340 Climbing Albuquerque Center
04:08PM 31.8868 -110.4693 74° East  Level FlightAware Approximate
04:08PM 32.0419 -110.6528 87° East 266 306 11,400  Level Albuquerque Center
04:09PM 31.9068 -110.3328 77° East  Level FlightAware Approximate
04:09PM 32.0492 -110.5475 85° East 294 338 13,900  Level Albuquerque Center
04:10PM 32.0547 -110.4392 87° East 325 374 15,100 1,140 Climbing Albuquerque Center
04:11PM 32.0475 -110.3164 94° East 370 426 16,300 1,140 Climbing Albuquerque Center
04:12PM 32.0392 -110.1850 94° East 401 461 17,500 1,320 Climbing Albuquerque Center
04:13PM 32.0333 -110.0497 93° East 415 478 19,100 1,680 Climbing Albuquerque Center
04:14PM 32.0275 -109.8853 92° East 422 486 21,000 1,620 Climbing Albuquerque Center
04:15PM 32.0219 -109.7486 93° East 421 484 22,500 1,500 Climbing Albuquerque Center
04:16PM 32.0161 -109.6094 93° East 424 488 24,100 1,500 Climbing Albuquerque Center
04:17PM 32.0081 -109.4678 94° East 430 495 25,600 1,440 Climbing Albuquerque Center
04:18PM 32.0006 -109.3286 94° East 429 494 27,100 1,620 Climbing Albuquerque Center
04:19PM 31.9925 -109.1669 93° East 421 484 29,000 1,620 Climbing Albuquerque Center
04:20PM 31.9858 -109.0339 93° East 415 478 30,500 1,320 Climbing Albuquerque Center
04:21PM 31.9789 -108.9003 93° East 414 476 31,800 1,200 Climbing Albuquerque Center
04:22PM 31.9725 -108.7658 93° East 415 478 33,000 1,200 Climbing Albuquerque Center
04:23PM 31.9653 -108.6336 94° East 412 474 34,300 960 Climbing Albuquerque Center
04:24PM 31.9558 -108.4736 94° East 413 475 35,000 300 Climbing Albuquerque Center
04:25PM 31.9481 -108.3328 94° East 428 493 35,000  Level Albuquerque Center
04:26PM 31.9408 -108.1917 93° East 435 501 35,000  Level Albuquerque Center
04:27PM 31.9311 -108.0353 94° East 436 502 35,000  Level Albuquerque Center
04:28PM 31.9228 -107.8914 94° East 441 507 35,000  Level Albuquerque Center
04:29PM 31.9142 -107.7461 94° East 446 513 35,000  Level Albuquerque Center
04:30PM 31.9044 -107.5917 94° East 445 512 35,000  Level Albuquerque Center
04:31PM 31.8947 -107.4286 94° East 445 512 35,000  Level Albuquerque Center
04:32PM 31.8856 -107.2836 94° East 447 514 35,000  Level Albuquerque Center
04:33PM 31.8758 -107.1389 94° East 448 516 35,000  Level Albuquerque Center
04:34PM 31.8658 -106.9917 95° East 453 521 35,000 -60 Level Albuquerque Center
04:35PM 31.8561 -106.8444 94° East 455 524 34,900  Descending Albuquerque Center
04:37PM 31.8461 -106.6964 95° East 457 526 35,000  Climbing Albuquerque Center
04:38PM 31.8331 -106.5244 95° East 458 527 35,000  Level Albuquerque Center
04:39PM 31.8239 -106.3728 94° East 463 533 35,000  Level Albuquerque Center
04:40PM 31.8039 -106.2264 99° East 462 532 35,000  Level Albuquerque Center
04:41PM 31.7667 -106.0853 107° East 455 524 35,000  Level Albuquerque Center
04:42PM 31.7308 -105.9433 106° East 453 521 35,000  Level Albuquerque Center
04:43PM 31.6869 -105.7728 107° East 454 522 35,000  Level Albuquerque Center
04:44PM 31.6511 -105.6289 106° East 458 527 35,000  Level Albuquerque Center
04:45PM 31.6158 -105.4864 106° East 454 522 35,000  Level Albuquerque Center
04:46PM 31.5789 -105.3428 107° East 458 527 35,000  Level Albuquerque Center
04:47PM 31.5439 -105.2011 106° East 454 522 35,000  Level Albuquerque Center
04:48PM 31.5072 -105.0594 107° East 453 521 35,000  Level Albuquerque Center
04:49PM 31.4708 -104.9158 107° East 456 525 35,000  Level Albuquerque Center
04:50PM 31.4261 -104.7422 107° East 459 528 35,000  Level Albuquerque Center
04:51PM 31.3892 -104.6006 107° East 458 527 35,000  Level Albuquerque Center
04:52PM 31.3522 -104.4600 107° East 454 522 35,000  Level Albuquerque Center
04:53PM 31.3153 -104.3203 107° East 452 520 35,000  Level Albuquerque Center
04:54PM 31.2800 -104.1817 107° East 446 513 35,000 -60 Level Albuquerque Center
04:55PM 31.2419 -104.0406 107° East 452 520 34,900  Descending Albuquerque Center
04:56PM 31.2039 -103.8989 107° East 456 525 35,000  Climbing Albuquerque Center
04:57PM 31.1581 -103.7325 108° East 457 526 35,000  Level Albuquerque Center
04:58PM 31.1192 -103.5911 108° East 459 528 35,000  Level Albuquerque Center
04:59PM 31.0797 -103.4500 108° East 459 528 35,000  Level Albuquerque Center
05:00PM 31.0406 -103.3078 108° East 460 529 35,000  Level Albuquerque Center
05:01PM 31.0017 -103.1681 108° East 457 526 35,000 -60 Level Albuquerque Center
05:02PM 30.9586 -103.0031 107° East 450 518 34,900 -60 Descending Albuquerque Center
05:03PM 30.9217 -102.8633 107° East 451 519 34,900  Level Albuquerque Center
05:04PM 30.8853 -102.7228 107° East 455 524 34,900  Level Albuquerque Center
05:05PM 30.8494 -102.5844 107° East 454 522 35,000  Climbing Albuquerque Center
05:06PM 30.8122 -102.4456 107° East 453 521 35,000  Level Albuquerque Center
05:07PM 30.7692 -102.2783 107° East 454 522 35,000  Level Albuquerque Center
05:09PM 30.7331 -102.1403 107° East 453 521 35,000  Level Albuquerque Center
05:10PM 30.6958 -102.0017 107° East 453 521 35,000  Level Albuquerque Center
05:11PM 30.6586 -101.8642 107° East 450 518 35,000  Level Albuquerque Center
05:12PM 30.6078 -101.6692 107° East 453 521 35,000  Level Houston Center
05:13PM 30.5664 -101.5158 107° East 448 516 35,000  Level Houston Center
05:14PM 30.5278 -101.3758 108° East 453 521 35,000 -60 Level Houston Center
05:15PM 30.4911 -101.2350 107° East 456 525 34,900  Descending Houston Center
05:16PM 30.4522 -101.0961 108° East 455 524 35,000  Climbing Houston Center
05:17PM 30.4061 -100.9281 108° East 455 524 35,000  Level Houston Center
05:18PM 30.3678 -100.7897 108° East 452 520 35,000  Level Houston Center
05:19PM 30.3297 -100.6492 107° East 455 524 35,000  Level Houston Center
05:20PM 30.2906 -100.5086 108° East 457 526 35,000  Level Houston Center
05:21PM 30.2519 -100.3672 108° East 457 526 35,000  Level Houston Center
05:22PM 30.2108 -100.2247 108° East 459 528 35,000  Level Houston Center
05:23PM 30.1719 -100.0794 107° East 464 534 35,000  Level Houston Center
05:24PM 30.1308 -99.9389 109° East 459 528 35,000  Level Houston Center
05:25PM 30.0825 -99.7717 108° East 457 526 35,000  Level Houston Center
05:26PM 30.0428 -99.6322 108° East 457 526 35,000  Level Houston Center
05:28PM 30.0019 -99.4925 109° East 460 529 35,000  Level Houston Center
05:29PM 29.9625 -99.3528 108° East 459 528 35,000  Level Houston Center
05:30PM 29.9197 -99.2094 109° East 460 529 35,000  Level Houston Center
05:31PM 29.8622 -99.0528 113° Southeast 461 531 35,000  Level Houston Center
05:32PM 29.8125 -98.9172 113° Southeast 460 529 35,000  Level Houston Center
05:33PM 29.7586 -98.7714 113° Southeast 460 529 35,000  Level Houston Center
05:34PM 29.7106 -98.6411 113° Southeast 459 528 35,000  Level Houston Center
05:35PM 29.6592 -98.5008 113° Southeast 456 525 35,000  Level Houston Center
05:36PM 29.6469 -98.3344 95° East 480 552 35,000  Level Houston Center
05:37PM 29.6483 -98.1819 89° East 478 550 35,000 -60 Level Houston Center
05:38PM 29.6497 -98.0306 89° East 475 547 34,900 -540 Descending Houston Center
05:39PM 29.6431 -97.8669 93° East 476 548 33,900 -1,020 Descending Houston Center
05:40PM 29.6347 -97.7139 94° East 486 559 32,900 -1,020 Descending Houston Center
05:41PM 29.6269 -97.5575 93° East 490 564 31,900 -1,440 Descending Houston Center
05:42PM 29.6178 -97.4006 94° East 492 566 30,000 -2,040 Descending Houston Center
05:43PM 29.6097 -97.2422 93° East 496 571 27,700 -2,460 Descending Houston Center
05:44PM 29.6000 -97.0803 94° East 503 579 25,000 -2,160 Descending Houston Center
05:45PM 29.5908 -96.9200 94° East 499 574 23,300 -2,400 Descending Houston Center
05:46PM 29.5806 -96.7339 94° East 480 552 20,100 -3,000 Descending Houston Center
05:47PM 29.5717 -96.5939 94° East 441 507 17,100 -2,820 Descending Houston Center
05:48PM 29.5636 -96.4792 95° East 415 478 14,800 -2,760 Descending Houston Center
05:49PM 29.5600 -96.4122 94° East 408 470 13,300 -2,760 Descending Houston Center
05:49PM 29.5550 -96.3364 94° East 397 457 11,500 -2,880 Descending Houston Center
05:50PM 29.5511 -96.2811 95° East 391 450 10,400 -1,500 Descending Houston Center
05:50PM 29.5475 -96.2150 94° East 384 442 10,000 -360 Descending Houston Center
05:51PM 29.5536 -96.1611 83° East 342 394 10,000 -120 Level Houston Center
05:51PM 29.5703 -96.1150 67° East 336 387 9,900 -480 Descending Houston Center
05:52PM 29.5886 -96.0803 59° Northeast 297 342 9,600 -900 Descending Houston Center
05:52PM 29.6192 -96.0181 61° Northeast 296 341 9,000 -540 Descending Houston Center
05:53PM 29.6350 -95.9883 58° Northeast 280 322 9,000 -240 Level Houston Center
05:53PM 29.6586 -95.9642 42° Northeast 274 315 8,800 -720 Descending Houston Center
05:54PM 29.6950 -95.9528 15° North 251 289 8,300 -1,080 Descending Houston Center
05:54PM 29.7411 -95.9394 14° North 255 293 7,700 -1,020 Descending Houston Center
05:55PM 29.7586 -95.9358 10° North 254 292 7,400 -720 Descending Houston Center
05:55PM 29.8097 -95.9206 15° North 254 292 7,000 -420 Descending Houston Center
05:56PM 29.8261 -95.9161 13° North 248 285 7,000  Level Houston Center
05:57PM 29.8753 -95.9014 15° North 245 282 7,000  Level Houston Center
05:58PM 29.9414 -95.8828 14° North 243 280 7,000 -180 Level Houston Center
05:59PM 29.9767 -95.8189 57° Northeast 242 278 6,700 -660 Descending Houston Center
06:00PM 29.9944 -95.7539 72° East 215 247 5,700 -840 Descending Houston Center
06:01PM 29.9931 -95.6819 91° East 189 217 5,000 -600 Descending Houston Center
06:02PM 29.9922 -95.6186 91° East 193 222 4,500 -660 Descending Houston Center
06:02PM 29.9936 -95.6025 84° East 197 227 4,200 -1,020 Descending Houston Center
06:03PM 29.9933 -95.5589 90° East 190 219 3,500 -1,020 Descending Houston Center
06:03PM 29.9925 -95.5450 94° East 181 208 3,200 -900 Descending Houston Center
06:04PM 29.9933 -95.5017 89° East 185 213 2,600 -900 Descending Houston Center
06:05PM 29.9936 -95.4461 90° East 179 206 1,600 -1,020 Descending Houston Center